Time;durP1;ratioP1;P1;durP2;ratioP2;P2;SDS_P1;SDS_P2;PMS_P1;PMS_P2;Temp;Humidity;BMP_temperature;BMP_pressure;BME280_temperature;BME280_humidity;BME280_pressure;Samples;Min_cycle;Max_cycle;Signal;HPM_P1;HPM_P2
2022/07/25 08:26:13;;;;;;;;;;;;;;;28.32;50.40;96745.50;4243634;27;10473;-69
2022/07/25 08:28:16;;;;;;;;;;;;;;;28.60;49.81;96743.44;4228618;28;5770;-69
2022/07/25 08:30:19;;;;;;;;;;;;;;;28.82;49.34;96757.00;4227927;28;5762;-68
2022/07/25 08:32:22;;;;;;;;;;;;;;;28.98;48.89;96747.34;4228772;28;5754;-69
2022/07/25 08:34:25;;;;;;;;;;;;;;;29.11;48.41;96750.28;4228232;28;5762;-69
2022/07/25 08:36:28;;;;;;;;;;;;;;;29.22;47.97;96749.75;4226997;28;5842;-69
2022/07/25 08:38:36;;;;;;;;;;;;;;;29.33;47.63;96749.44;4228874;28;5774;-69
2022/07/25 08:40:39;;;;;;;;;;;;;;;29.40;47.46;96757.97;4228611;28;5762;-69
2022/07/25 08:42:44;;;;;;;;;;;;;;;29.44;47.23;96750.75;4228461;28;5773;-69
2022/07/25 08:44:55;;;;;;;;;;;;;;;29.52;47.10;96752.75;4217314;28;5850;-69
2022/07/25 08:47:00;;;;;;;;;;;;;;;29.58;46.85;96750.69;4225845;28;5915;-69
2022/07/25 08:49:03;;;;;;;;;;;;;;;29.64;46.61;96749.41;4225100;28;5761;-69
2022/07/25 08:51:07;;;;;;;;;;;;;;;29.68;46.23;96740.28;4212098;28;5783;-69
2022/07/25 08:53:10;;;;;;;;;;;;;;;29.74;46.07;96732.75;4219847;28;6022;-69
2022/07/25 08:55:33;;;;;;;;;;;;;;;29.77;45.69;96732.13;4227597;28;5766;-69
2022/07/25 08:57:40;;;;;;;;;;;;;;;29.78;45.74;96737.25;4227928;28;7708;-70
2022/07/25 08:59:44;;;;;;;;;;;;;;;29.80;45.27;96731.50;4227204;28;5786;-69
2022/07/25 09:01:47;;;;;;;;;;;;;;;29.82;45.03;96734.72;4225081;28;5850;-69
2022/07/25 09:03:50;;;;;;;;;;;;;;;29.83;44.80;96737.09;4228190;28;5785;-69
2022/07/25 09:05:53;;;;;;;;;;;;;;;29.86;44.61;96738.38;4213899;28;5795;-69
2022/07/25 09:07:58;;;;;;;;;;;;;;;29.91;44.32;96742.91;4226938;28;5730;-69
2022/07/25 09:10:13;;;;;;;;;;;;;;;29.95;44.19;96746.59;4225610;28;6505;-69
2022/07/25 09:12:16;;;;;;;;;;;;;;;29.97;43.82;96750.59;4227523;28;5806;-69
2022/07/25 09:14:23;;;;;;;;;;;;;;;29.99;43.82;96739.38;4227094;28;5745;-70
2022/07/25 09:16:31;;;;;;;;;;;;;;;30.00;43.77;96740.97;4224731;28;5758;-70
2022/07/25 09:18:36;;;;;;;;;;;;;;;30.02;43.28;96744.19;4225539;28;5781;-70
2022/07/25 09:20:41;;;;;;;;;;;;;;;30.03;43.24;96737.63;4221178;28;5800;-70
2022/07/25 09:22:45;;;;;;;;;;;;;;;30.04;42.97;96737.28;4215057;28;5756;-70
2022/07/25 09:24:48;;;;;;;;;;;;;;;30.07;42.71;96736.69;4227534;28;5762;-67
2022/07/25 09:26:54;;;;;;;;;;;;;;;30.08;42.60;96738.28;4214051;28;5815;-68
2022/07/25 09:28:57;;;;;;;;;;;;;;;30.11;42.67;96743.09;4214746;28;7928;-70
2022/07/25 09:31:01;;;;;;;;;;;;;;;30.14;42.50;96742.47;4216272;28;5781;-70
2022/07/25 09:33:06;;;;;;;;;;;;;;;30.14;42.21;96741.66;4216376;28;5782;-69
2022/07/25 09:35:09;;;;;;;;;;;;;;;30.13;42.13;96742.78;4216516;28;5789;-71
2022/07/25 09:37:14;;;;;;;;;;;;;;;30.14;41.73;96741.66;4215435;28;5782;-70
2022/07/25 09:39:17;;;;;;;;;;;;;;;30.18;41.31;96736.38;4199764;28;5823;-70
2022/07/25 09:41:20;;;;;;;;;;;;;;;30.18;41.40;96734.44;4199451;28;5786;-70
2022/07/25 09:43:34;;;;;;;;;;;;;;;30.22;41.32;96731.88;4199598;28;5795;-70
2022/07/25 09:45:48;;;;;;;;;;;;;;;30.23;41.10;96734.25;4203358;28;5936;-70
2022/07/25 09:47:54;;;;;;;;;;;;;;;30.26;41.02;96728.19;4212586;28;5746;-70
2022/07/25 09:49:58;;;;;;;;;;;;;;;30.29;40.57;96732.19;4215802;28;5782;-70
2022/07/25 09:52:01;;;;;;;;;;;;;;;30.30;40.46;96728.34;4210333;28;5786;-70
2022/07/25 09:54:04;;;;;;;;;;;;;;;30.33;40.39;96727.69;4214383;28;5810;-70
2022/07/25 09:56:08;;;;;;;;;;;;;;;30.34;40.29;96719.19;4212138;28;5826;-70
2022/07/25 09:58:12;;;;;;;;;;;;;;;30.37;40.22;96718.56;4215712;28;5782;-70
2022/07/25 10:00:19;;;;;;;;;;;;;;;30.39;39.91;96726.41;4216003;28;5774;-70
2022/07/25 10:02:33;;;;;;;;;;;;;;;30.40;39.67;96725.28;4213608;28;5811;-70
2022/07/25 10:04:45;;;;;;;;;;;;;;;30.43;39.66;96719.19;4211858;28;5763;-69
2022/07/25 10:06:57;;;;;;;;;;;;;;;30.46;39.66;96726.72;4211585;28;5807;-70
2022/07/25 10:09:00;;;;;;;;;;;;;;;30.47;39.54;96722.06;4211302;28;5878;-70
2022/07/25 10:11:04;;;;;;;;;;;;;;;30.50;39.21;96716.78;4209190;28;5751;-70
2022/07/25 10:13:10;;;;;;;;;;;;;;;30.52;39.50;96716.44;4205435;28;5786;-71
2022/07/25 10:15:14;;;;;;;;;;;;;;;30.53;39.01;96716.13;4197763;28;5878;-70
2022/07/25 10:17:21;;;;;;;;;;;;;;;30.55;39.16;96710.34;4215113;28;5766;-70
2022/07/25 10:19:46;;;;;;;;;;;;;;;30.57;39.08;96708.09;4215895;28;5856;-70
2022/07/25 10:21:58;;;;;;;;;;;;;;;30.58;38.90;96706.94;4214988;28;5111;-70
2022/07/25 10:24:03;;;;;;;;;;;;;;;30.60;38.73;96702.81;4215604;28;6375;-70
2022/07/25 10:26:14;;;;;;;;;;;;;;;30.62;38.96;96702.47;4215488;28;6559;-70
2022/07/25 10:28:19;;;;;;;;;;;;;;;30.64;38.58;96695.59;4215824;28;5757;-70
2022/07/25 10:30:24;;;;;;;;;;;;;;;30.66;38.59;96698.78;4215504;28;5759;-69
2022/07/25 10:32:34;;;;;;;;;;;;;;;30.68;38.68;96701.19;4215498;28;5781;-70
2022/07/25 10:34:37;;;;;;;;;;;;;;;30.73;38.46;96697.50;4215549;28;7667;-70
2022/07/25 10:36:43;;;;;;;;;;;;;;;30.74;38.35;96693.66;4213452;28;5826;-70
2022/07/25 10:38:50;;;;;;;;;;;;;;;30.76;38.53;96694.13;4214454;28;5742;-70
2022/07/25 10:40:53;;;;;;;;;;;;;;;30.78;38.39;96686.41;4215335;28;5806;-70
2022/07/25 10:43:07;;;;;;;;;;;;;;;30.80;38.51;96687.66;4215239;28;5773;-70
2022/07/25 10:45:17;;;;;;;;;;;;;;;30.84;38.20;96688.63;4212115;28;5781;-70
2022/07/25 10:47:24;;;;;;;;;;;;;;;30.89;38.40;96679.47;4215235;28;5774;-70
2022/07/25 10:49:27;;;;;;;;;;;;;;;30.94;38.24;96679.28;4215006;28;5777;-70
2022/07/25 10:51:36;;;;;;;;;;;;;;;30.98;38.34;96677.50;4201602;28;5812;-70
2022/07/25 10:53:47;;;;;;;;;;;;;;;31.03;38.02;96677.31;4212243;28;5790;-70
2022/07/25 10:55:57;;;;;;;;;;;;;;;31.08;38.18;96671.69;4214782;28;5781;-71
2022/07/25 10:58:08;;;;;;;;;;;;;;;31.11;38.03;96665.56;4215033;28;5774;-70
2022/07/25 11:00:20;;;;;;;;;;;;;;;31.16;37.80;96664.59;4214982;28;5778;-69
2022/07/25 11:02:24;;;;;;;;;;;;;;;31.18;37.74;96663.13;4215182;28;5777;-70
2022/07/25 11:04:28;;;;;;;;;;;;;;;31.20;37.59;96654.63;4215261;28;5778;-70
2022/07/25 11:06:33;;;;;;;;;;;;;;;31.20;37.53;96660.88;4215284;28;5790;-70
2022/07/25 11:08:36;;;;;;;;;;;;;;;31.22;37.78;96658.63;4215261;28;5847;-70
2022/07/25 11:10:41;;;;;;;;;;;;;;;31.24;37.75;96652.81;4214774;28;6526;-71
2022/07/25 11:12:44;;;;;;;;;;;;;;;31.23;37.64;96645.75;4214824;28;5758;-70
2022/07/25 11:14:47;;;;;;;;;;;;;;;31.23;37.70;96649.31;4213203;28;5811;-70
2022/07/25 11:16:52;;;;;;;;;;;;;;;31.26;37.54;96654.13;4212745;28;5762;-70
2022/07/25 11:18:55;;;;;;;;;;;;;;;31.27;37.51;96646.72;4214850;28;5789;-70
2022/07/25 11:20:59;;;;;;;;;;;;;;;31.30;37.33;96637.88;4214515;28;5775;-70
2022/07/25 11:23:08;;;;;;;;;;;;;;;31.33;37.07;96628.22;4215223;28;5761;-70
2022/07/25 11:25:13;;;;;;;;;;;;;;;31.36;36.85;96630.25;4214647;28;5758;-70
2022/07/25 11:27:23;;;;;;;;;;;;;;;31.42;36.94;96631.69;4214745;28;5782;-70
2022/07/25 11:29:26;;;;;;;;;;;;;;;31.42;36.70;96623.50;4214986;28;5766;-70
2022/07/25 11:31:29;;;;;;;;;;;;;;;31.41;36.88;96625.44;4214203;28;5806;-70
2022/07/25 11:33:32;;;;;;;;;;;;;;;31.42;36.87;96621.56;4214576;28;6567;-70
2022/07/25 11:35:40;;;;;;;;;;;;;;;31.46;36.42;96613.50;4214909;28;5770;-70
2022/07/25 11:37:47;;;;;;;;;;;;;;;31.47;36.62;96615.09;4214650;28;5774;-70
2022/07/25 11:39:50;;;;;;;;;;;;;;;31.49;36.66;96616.38;4214751;28;5902;-70
2022/07/25 11:42:06;;;;;;;;;;;;;;;31.48;36.47;96606.56;4213028;28;6514;-70
2022/07/25 11:44:10;;;;;;;;;;;;;;;31.48;36.32;96613.94;4214333;28;5818;-70
2022/07/25 11:46:13;;;;;;;;;;;;;;;31.49;36.39;96610.13;4214134;28;5773;-70
2022/07/25 11:48:18;;;;;;;;;;;;;;;31.52;36.28;96609.44;4214373;28;5786;-70
2022/07/25 11:50:29;;;;;;;;;;;;;;;31.51;36.41;96597.72;4204157;28;5820;-70
2022/07/25 11:52:37;;;;;;;;;;;;;;;31.52;36.24;96595.78;4197917;28;5803;-70
2022/07/25 11:54:50;;;;;;;;;;;;;;;31.51;36.60;96597.72;4197709;28;6480;-70
2022/07/25 11:56:53;;;;;;;;;;;;;;;31.51;36.34;96596.91;4198106;28;5808;-70
2022/07/25 11:59:00;;;;;;;;;;;;;;;31.50;36.32;96601.59;4197803;28;5796;-70
2022/07/25 12:01:11;;;;;;;;;;;;;;;31.52;36.16;96596.59;4196907;28;5800;-70
2022/07/25 12:03:16;;;;;;;;;;;;;;;31.54;36.26;96590.78;4197860;28;5792;-70
2022/07/25 12:05:31;;;;;;;;;;;;;;;31.59;36.15;96593.31;4197749;28;5775;-70
2022/07/25 12:07:36;;;;;;;;;;;;;;;31.63;36.19;96588.78;4198036;28;5805;-70
2022/07/25 12:09:41;;;;;;;;;;;;;;;31.67;36.18;96583.44;4197615;28;6120;-70
2022/07/25 12:11:45;;;;;;;;;;;;;;;31.70;36.44;96571.84;4197280;28;5788;-70
2022/07/25 12:13:49;;;;;;;;;;;;;;;31.72;36.18;96575.06;4197551;28;5788;-70
2022/07/25 12:15:53;;;;;;;;;;;;;;;31.76;36.07;96574.06;4200350;28;5837;-70
2022/07/25 12:17:58;;;;;;;;;;;;;;;31.78;36.26;96569.06;4214017;28;5786;-70
2022/07/25 12:20:01;;;;;;;;;;;;;;;31.82;35.92;96569.97;4213918;28;5870;-70
2022/07/25 12:22:12;;;;;;;;;;;;;;;31.84;36.49;96562.28;4212924;28;5813;-71
2022/07/25 12:24:15;;;;;;;;;;;;;;;31.85;36.35;96563.06;4213816;28;5117;-69
2022/07/25 12:26:19;;;;;;;;;;;;;;;31.84;36.03;96562.28;4214111;28;6496;-70
2022/07/25 12:28:22;;;;;;;;;;;;;;;31.87;36.18;96566.25;4214106;28;5766;-70
2022/07/25 12:30:26;;;;;;;;;;;;;;;31.84;36.17;96556.81;4213698;28;5795;-69
2022/07/25 12:32:29;;;;;;;;;;;;;;;31.85;36.16;96563.88;4213928;28;5856;-70
2022/07/25 12:34:33;;;;;;;;;;;;;;;31.84;36.13;96561.47;4214186;28;5758;-70
2022/07/25 12:36:42;;;;;;;;;;;;;;;31.82;36.17;96555.53;4213965;28;5762;-70
2022/07/25 12:38:45;;;;;;;;;;;;;;;31.80;36.14;96555.84;4214243;28;6411;-70
2022/07/25 12:40:48;;;;;;;;;;;;;;;31.80;36.06;96550.41;4213697;28;7682;-70
2022/07/25 12:42:51;;;;;;;;;;;;;;;31.86;35.85;96551.78;4214042;28;5778;-70
2022/07/25 12:44:55;;;;;;;;;;;;;;;31.92;35.64;96549.63;4212415;28;5785;-70
2022/07/25 12:46:58;;;;;;;;;;;;;;;31.94;35.75;96549.28;4213605;28;6043;-70
2022/07/25 12:49:00;;;;;;;;;;;;;;;31.97;35.33;96543.19;4214004;28;5770;-70
2022/07/25 12:51:05;;;;;;;;;;;;;;;31.97;35.51;96546.72;4213475;28;5773;-70
2022/07/25 12:53:08;;;;;;;;;;;;;;;31.98;35.54;96547.50;4213804;28;5787;-70
2022/07/25 12:55:15;;;;;;;;;;;;;;;32.02;35.66;96542.94;4214055;28;5766;-70
2022/07/25 12:57:19;;;;;;;;;;;;;;;32.06;35.11;96544.69;4213898;28;5758;-70
2022/07/25 12:59:22;;;;;;;;;;;;;;;32.08;35.38;96544.34;4213801;28;5774;-70
2022/07/25 13:01:25;;;;;;;;;;;;;;;32.08;35.09;96536.16;4214513;28;5781;-70
2022/07/25 13:03:28;;;;;;;;;;;;;;;32.10;35.32;96542.88;4216598;28;6467;-70
2022/07/25 13:05:31;;;;;;;;;;;;;;;32.11;35.36;96546.41;4215531;28;5803;-70
2022/07/25 13:07:36;;;;;;;;;;;;;;;32.11;34.88;96540.94;4217129;28;5762;-70
2022/07/25 13:09:39;;;;;;;;;;;;;;;32.08;34.96;96541.63;4216865;28;5798;-70
2022/07/25 13:11:42;;;;;;;;;;;;;;;32.08;34.89;96538.88;4216613;28;5766;-70
2022/07/25 13:13:45;;;;;;;;;;;;;;;32.06;34.89;96541.16;4215204;28;5789;-70
2022/07/25 13:15:48;;;;;;;;;;;;;;;32.05;35.24;96539.53;4214442;28;5875;-70
2022/07/25 13:17:51;;;;;;;;;;;;;;;32.05;35.18;96534.06;4216458;28;5813;-70
2022/07/25 13:19:54;;;;;;;;;;;;;;;32.07;35.17;96540.03;4216732;28;5750;-70
2022/07/25 13:21:57;;;;;;;;;;;;;;;32.08;35.15;96542.41;4199934;28;5796;-70
2022/07/25 13:24:01;;;;;;;;;;;;;;;32.08;35.02;96533.41;4200057;28;6936;-70
2022/07/25 13:26:04;;;;;;;;;;;;;;;32.09;34.97;96532.28;4214909;28;5774;-70
2022/07/25 13:28:07;;;;;;;;;;;;;;;32.10;35.06;96534.66;4216406;28;7794;-70
2022/07/25 13:30:14;;;;;;;;;;;;;;;32.12;35.03;96540.59;4216616;28;5089;-71
2022/07/25 13:32:17;;;;;;;;;;;;;;;32.12;34.92;96540.59;4216077;28;5786;-70
2022/07/25 13:34:20;;;;;;;;;;;;;;;32.11;34.84;96533.53;4216264;28;5778;-70
2022/07/25 13:36:23;;;;;;;;;;;;;;;32.11;34.66;96525.31;4216473;28;5758;-70
2022/07/25 13:38:26;;;;;;;;;;;;;;;32.14;35.11;96532.03;4216264;28;5831;-70
2022/07/25 13:40:31;;;;;;;;;;;;;;;32.13;35.11;96528.50;4216156;28;5257;-71
2022/07/25 13:42:33;;;;;;;;;;;;;;;32.16;34.81;96527.03;4216392;28;5795;-70
2022/07/25 13:44:36;;;;;;;;;;;;;;;32.16;35.14;96519.63;4216044;28;5782;-70
2022/07/25 13:46:39;;;;;;;;;;;;;;;32.16;34.92;96524.28;4215989;28;5770;-70
2022/07/25 13:48:42;;;;;;;;;;;;;;;32.15;35.13;96517.22;4216220;28;5755;-71
2022/07/25 13:50:45;;;;;;;;;;;;;;;32.14;35.09;96523.84;4215818;28;5777;-69
2022/07/25 13:52:48;;;;;;;;;;;;;;;32.12;35.05;96520.66;4216075;28;6026;-70
2022/07/25 13:54:51;;;;;;;;;;;;;;;32.11;34.88;96525.31;4216126;28;7683;-69
2022/07/25 13:56:55;;;;;;;;;;;;;;;32.09;34.73;96516.66;4216092;28;5916;-69
2022/07/25 13:58:58;;;;;;;;;;;;;;;32.13;34.95;96524.97;4216099;28;5770;-69
2022/07/25 14:01:01;;;;;;;;;;;;;;;32.17;34.79;96514.97;4212582;28;5100;-69
2022/07/25 14:03:04;;;;;;;;;;;;;;;32.16;34.72;96518.81;4216281;28;5806;-69
2022/07/25 14:05:08;;;;;;;;;;;;;;;32.17;34.70;96514.97;4215995;28;5807;-70
2022/07/25 14:07:11;;;;;;;;;;;;;;;32.15;34.62;96511.75;4216179;28;5766;-70
2022/07/25 14:09:14;;;;;;;;;;;;;;;32.14;34.87;96504.69;4216025;28;5793;-70
2022/07/25 14:11:17;;;;;;;;;;;;;;;32.13;34.65;96511.31;4215784;28;6443;-70
2022/07/25 14:13:21;;;;;;;;;;;;;;;32.14;34.66;96510.97;4215829;28;5769;-70
2022/07/25 14:15:33;;;;;;;;;;;;;;;32.14;34.55;96508.22;4215506;28;5774;-70
2022/07/25 14:17:37;;;;;;;;;;;;;;;32.12;34.82;96504.25;4215253;28;5778;-70
2022/07/25 14:19:40;;;;;;;;;;;;;;;32.14;34.89;96508.22;4199045;28;5787;-70
2022/07/25 14:21:43;;;;;;;;;;;;;;;32.16;34.39;96513.34;4214621;28;5755;-70
2022/07/25 14:23:46;;;;;;;;;;;;;;;32.16;34.71;96510.63;4210594;28;5906;-70
2022/07/25 14:25:50;;;;;;;;;;;;;;;32.20;34.59;96502.56;4213356;28;5778;-70
2022/07/25 14:27:53;;;;;;;;;;;;;;;32.20;34.90;96502.56;4214064;28;5791;-70
2022/07/25 14:29:58;;;;;;;;;;;;;;;32.23;34.65;96507.34;4215448;28;5850;-70
2022/07/25 14:32:01;;;;;;;;;;;;;;;32.24;34.69;96504.25;4213850;28;5786;-70
2022/07/25 14:34:04;;;;;;;;;;;;;;;32.23;34.89;96499.13;4212992;28;6495;-70
2022/07/25 14:36:07;;;;;;;;;;;;;;;32.21;34.67;96502.22;4213821;28;5779;-70
2022/07/25 14:38:10;;;;;;;;;;;;;;;32.20;34.66;96497.88;4207760;28;6554;-70
2022/07/25 14:40:14;;;;;;;;;;;;;;;32.23;34.95;96502.66;4215191;28;5778;-70
2022/07/25 14:42:17;;;;;;;;;;;;;;;32.23;34.72;96486.25;4215355;28;5587;-70
2022/07/25 14:44:20;;;;;;;;;;;;;;;32.23;34.96;96494.47;4212076;28;5758;-70
2022/07/25 14:46:25;;;;;;;;;;;;;;;32.23;35.07;96485.47;4198277;28;6485;-70
2022/07/25 14:48:28;;;;;;;;;;;;;;;32.22;34.68;96486.59;4198531;28;5796;-70
2022/07/25 14:50:31;;;;;;;;;;;;;;;32.26;34.80;96484.78;4210606;28;5786;-70
2022/07/25 14:52:34;;;;;;;;;;;;;;;32.25;34.82;96485.91;4211446;28;5941;-70
2022/07/25 14:54:37;;;;;;;;;;;;;;;32.23;35.01;96480.78;4209480;28;5125;-71
2022/07/25 14:56:42;;;;;;;;;;;;;;;32.23;34.97;96485.47;4209918;28;5791;-70
2022/07/25 14:58:45;;;;;;;;;;;;;;;32.21;34.99;96474.06;4211701;28;5878;-71
2022/07/25 15:00:48;;;;;;;;;;;;;;;32.19;35.13;96477.16;4199776;28;5799;-72
2022/07/25 15:02:52;;;;;;;;;;;;;;;32.18;35.40;96475.56;4201395;28;5791;-70
2022/07/25 15:04:55;;;;;;;;;;;;;;;32.18;35.01;96474.75;4208601;28;5766;-70
2022/07/25 15:06:58;;;;;;;;;;;;;;;32.20;35.03;96478.75;4201657;28;5762;-69
2022/07/25 15:09:01;;;;;;;;;;;;;;;32.20;35.18;96470.53;4209559;28;5802;-70
2022/07/25 15:11:04;;;;;;;;;;;;;;;32.22;35.55;96478.41;4213760;28;6529;-69
2022/07/25 15:13:07;;;;;;;;;;;;;;;32.22;35.30;96476.47;4211316;28;5802;-69
2022/07/25 15:15:39;;;;;;;;;;;;;;;32.19;35.59;96466.22;4213693;28;5874;-69
2022/07/25 15:17:42;;;;;;;;;;;;;;;32.19;35.96;96479.88;4219707;28;5766;-69
2022/07/25 15:19:46;;;;;;;;;;;;;;;32.21;35.54;96482.28;4213363;28;5778;-69
2022/07/25 15:21:49;;;;;;;;;;;;;;;32.21;35.75;96476.81;4208693;28;5771;-69
2022/07/25 15:23:53;;;;;;;;;;;;;;;32.21;35.99;96477.59;4212063;28;5782;-69
2022/07/25 15:25:57;;;;;;;;;;;;;;;32.22;35.77;96476.47;4211867;28;5904;-70
2022/07/25 15:28:04;;;;;;;;;;;;;;;32.23;36.44;96477.25;4211539;28;5813;-69
2022/07/25 15:30:08;;;;;;;;;;;;;;;32.22;36.03;96471.00;4211579;28;5762;-70
2022/07/25 15:32:11;;;;;;;;;;;;;;;32.23;36.32;96475.31;4212400;28;5782;-70
2022/07/25 15:34:14;;;;;;;;;;;;;;;32.23;36.44;96475.31;4208779;28;5766;-70
2022/07/25 15:36:19;;;;;;;;;;;;;;;32.24;36.81;96476.13;4209819;28;5769;-70
2022/07/25 15:38:25;;;;;;;;;;;;;;;32.24;36.72;96465.97;4210930;28;5899;-70
2022/07/25 15:40:27;;;;;;;;;;;;;;;32.24;37.14;96465.97;4213363;28;5774;-70
2022/07/25 15:42:31;;;;;;;;;;;;;;;32.24;37.09;96465.97;4211090;28;5778;-70
2022/07/25 15:44:34;;;;;;;;;;;;;;;32.23;37.01;96469.84;4208240;28;5766;-70
2022/07/25 15:46:39;;;;;;;;;;;;;;;32.24;37.47;96471.44;4212723;28;5781;-70
2022/07/25 15:48:43;;;;;;;;;;;;;;;32.24;37.65;96470.66;4213784;28;5782;-70
2022/07/25 15:50:48;;;;;;;;;;;;;;;32.25;37.70;96472.25;4210379;28;5795;-70
2022/07/25 15:52:52;;;;;;;;;;;;;;;32.26;37.42;96468.38;4211823;28;6348;-71
2022/07/25 15:54:55;;;;;;;;;;;;;;;32.29;37.62;96475.94;4215928;28;6467;-70
2022/07/25 15:56:57;;;;;;;;;;;;;;;32.35;37.81;96469.09;4215793;28;5780;-71
2022/07/25 15:59:00;;;;;;;;;;;;;;;32.38;37.91;96466.47;4215743;28;5834;-71
2022/07/25 16:01:03;;;;;;;;;;;;;;;32.41;38.43;96474.00;4215393;28;5814;-70
2022/07/25 16:03:07;;;;;;;;;;;;;;;32.47;38.26;96462.81;4215864;28;5856;-71
2022/07/25 16:05:10;;;;;;;;;;;;;;;32.51;38.63;96455.53;4215751;28;5668;-71
2022/07/25 16:07:13;;;;;;;;;;;;;;;32.55;38.78;96461.91;4215848;28;5671;-71
2022/07/25 16:09:18;;;;;;;;;;;;;;;32.62;38.88;96465.69;4215721;28;5671;-71
2022/07/25 16:11:21;;;;;;;;;;;;;;;32.66;39.34;96466.56;4215688;28;5684;-70
2022/07/25 16:13:24;;;;;;;;;;;;;;;32.69;39.37;96465.88;4213893;28;6534;-71
2022/07/25 16:15:27;;;;;;;;;;;;;;;32.71;39.52;96462.78;4214067;28;5676;-72
2022/07/25 16:17:30;;;;;;;;;;;;;;;32.72;39.05;96464.38;4209294;28;5688;-71
2022/07/25 16:19:34;;;;;;;;;;;;;;;32.72;38.79;96459.72;4215398;28;6153;-71
2022/07/25 16:21:38;;;;;;;;;;;;;;;32.79;38.98;96459.13;4215425;28;5672;-71
2022/07/25 16:23:41;;;;;;;;;;;;;;;32.84;38.26;96461.66;4215785;28;5675;-71
2022/07/25 16:25:49;;;;;;;;;;;;;;;32.90;38.37;96457.56;4214141;28;5754;-70
2022/07/25 16:27:52;;;;;;;;;;;;;;;32.94;38.09;96463.13;4215836;28;5680;-70
2022/07/25 16:29:55;;;;;;;;;;;;;;;32.94;37.50;96463.13;4215977;28;5687;-71
2022/07/25 16:31:58;;;;;;;;;;;;;;;32.93;37.89;96465.06;4212758;28;7722;-70
2022/07/25 16:34:01;;;;;;;;;;;;;;;32.95;38.02;96470.19;4215426;28;5660;-71
2022/07/25 16:36:04;;;;;;;;;;;;;;;32.93;38.05;96459.59;4216177;28;5813;-71
2022/07/25 16:38:08;;;;;;;;;;;;;;;32.95;38.07;96465.50;4218481;28;5769;-71
2022/07/25 16:40:11;;;;;;;;;;;;;;;32.97;37.83;96471.47;4218745;28;5680;-70
2022/07/25 16:42:15;;;;;;;;;;;;;;;32.96;37.21;96464.41;4218953;28;5821;-71
2022/07/25 16:44:18;;;;;;;;;;;;;;;32.98;37.19;96469.53;4218969;28;6507;-70
2022/07/25 16:46:21;;;;;;;;;;;;;;;32.99;37.25;96471.91;4218748;28;5679;-70
2022/07/25 16:48:30;;;;;;;;;;;;;;;33.03;36.57;96474.75;4219066;28;5678;-71
2022/07/25 16:50:33;;;;;;;;;;;;;;;33.09;36.54;96475.31;4218460;28;5796;-70
2022/07/25 16:52:36;;;;;;;;;;;;;;;33.13;35.71;96478.94;4218853;28;5659;-71
2022/07/25 16:54:39;;;;;;;;;;;;;;;33.14;36.12;96477.81;4218893;28;5706;-71
2022/07/25 16:56:43;;;;;;;;;;;;;;;33.12;35.67;96477.34;4217391;28;5738;-71
2022/07/25 16:58:47;;;;;;;;;;;;;;;33.09;35.85;96494.50;4218748;28;5765;-71
2022/07/25 17:00:50;;;;;;;;;;;;;;;33.08;35.08;96492.91;4218601;28;6399;-70
2022/07/25 17:02:53;;;;;;;;;;;;;;;33.08;35.10;96493.69;4218797;28;5663;-71
2022/07/25 17:04:56;;;;;;;;;;;;;;;33.09;34.72;96491.75;4218548;28;5814;-71
2022/07/25 17:06:59;;;;;;;;;;;;;;;33.09;35.17;96503.50;4218745;28;5715;-70
2022/07/25 17:09:02;;;;;;;;;;;;;;;33.10;34.97;96496.88;4214772;28;5683;-70
2022/07/25 17:11:06;;;;;;;;;;;;;;;33.13;34.66;96503.59;4214680;28;6492;-71
2022/07/25 17:13:09;;;;;;;;;;;;;;;33.14;34.26;96503.25;4214875;28;5663;-71
2022/07/25 17:15:13;;;;;;;;;;;;;;;33.15;34.40;96504.03;4214237;28;6333;-71
2022/07/25 17:17:16;;;;;;;;;;;;;;;33.14;34.52;96500.50;4211914;28;6329;-71
2022/07/25 17:19:19;;;;;;;;;;;;;;;33.14;34.05;96502.44;4217985;28;5651;-71
2022/07/25 17:21:22;;;;;;;;;;;;;;;33.12;34.18;96510.22;4218106;28;5826;-70
2022/07/25 17:23:25;;;;;;;;;;;;;;;33.08;33.76;96506.59;4218396;28;5089;-71
2022/07/25 17:25:28;;;;;;;;;;;;;;;33.04;33.99;96506.47;4217909;28;5671;-70
2022/07/25 17:27:31;;;;;;;;;;;;;;;33.00;33.55;96500.88;4216887;28;5732;-70
2022/07/25 17:29:34;;;;;;;;;;;;;;;32.98;33.72;96505.13;4218319;28;5775;-69
2022/07/25 17:31:38;;;;;;;;;;;;;;;32.96;33.96;96507.41;4217951;28;5700;-69
2022/07/25 17:33:41;;;;;;;;;;;;;;;32.91;34.09;96508.44;4218033;28;6436;-70
2022/07/25 17:35:44;;;;;;;;;;;;;;;32.89;33.39;96507.97;4218091;28;7691;-70
2022/07/25 17:37:47;;;;;;;;;;;;;;;32.85;33.66;96509.81;4216701;28;5805;-69
2022/07/25 17:39:50;;;;;;;;;;;;;;;32.84;33.43;96516.41;4217791;28;5739;-71
2022/07/25 17:41:53;;;;;;;;;;;;;;;32.83;33.78;96514.81;4217980;28;5766;-70
2022/07/25 17:43:56;;;;;;;;;;;;;;;32.81;33.25;96516.28;4217892;28;5810;-71
2022/07/25 17:45:59;;;;;;;;;;;;;;;32.79;33.45;96513.88;4217885;28;5691;-70
2022/07/25 17:48:04;;;;;;;;;;;;;;;32.78;33.32;96509.56;4217121;28;5700;-70
2022/07/25 17:50:08;;;;;;;;;;;;;;;32.75;33.50;96518.47;4217648;28;5670;-71
2022/07/25 17:52:12;;;;;;;;;;;;;;;32.73;33.63;96518.81;4217948;28;5671;-71
2022/07/25 17:54:15;;;;;;;;;;;;;;;32.72;33.20;96516.38;4217866;28;5683;-71
2022/07/25 17:56:18;;;;;;;;;;;;;;;32.71;33.68;96523.00;4217820;28;5668;-71
2022/07/25 17:58:21;;;;;;;;;;;;;;;32.69;33.38;96515.13;4217790;28;5671;-71
2022/07/25 18:00:24;;;;;;;;;;;;;;;32.69;33.55;96536.25;4217844;28;5831;-71
2022/07/25 18:02:26;;;;;;;;;;;;;;;32.66;33.67;96517.78;4217551;28;5817;-71
2022/07/25 18:04:31;;;;;;;;;;;;;;;32.65;33.54;96521.66;4214194;28;5671;-71
2022/07/25 18:06:34;;;;;;;;;;;;;;;32.62;33.11;96530.53;4217803;28;5766;-71
2022/07/25 18:08:37;;;;;;;;;;;;;;;32.60;33.13;96527.34;4217761;28;5881;-71
2022/07/25 18:10:41;;;;;;;;;;;;;;;32.58;33.45;96526.88;4213938;28;5667;-72
2022/07/25 18:12:44;;;;;;;;;;;;;;;32.54;33.03;96535.00;4213981;28;5758;-72
2022/07/25 18:14:47;;;;;;;;;;;;;;;32.52;33.17;96531.00;4213543;28;5822;-71
2022/07/25 18:16:50;;;;;;;;;;;;;;;32.51;33.35;96529.41;4208739;28;5854;-73
2022/07/25 18:18:53;;;;;;;;;;;;;;;32.47;33.08;96534.75;4218337;28;5675;-70
2022/07/25 18:20:57;;;;;;;;;;;;;;;32.41;33.34;96536.91;4218250;28;5800;-70
2022/07/25 18:23:00;;;;;;;;;;;;;;;32.37;33.33;96546.13;4216291;28;5762;-71
2022/07/25 18:25:03;;;;;;;;;;;;;;;32.29;33.58;96539.63;4216846;28;5747;-71
2022/07/25 18:27:06;;;;;;;;;;;;;;;32.20;33.47;96546.31;4217495;28;5778;-71
2022/07/25 18:29:09;;;;;;;;;;;;;;;32.18;33.49;96559.53;4217448;28;5821;-71
2022/07/25 18:31:12;;;;;;;;;;;;;;;32.10;33.20;96553.00;4216940;28;5751;-70
2022/07/25 18:33:15;;;;;;;;;;;;;;;32.06;33.55;96552.09;4213164;28;5663;-71
2022/07/25 18:35:18;;;;;;;;;;;;;;;32.05;33.42;96556.75;4215425;28;5671;-71
2022/07/25 18:37:23;;;;;;;;;;;;;;;32.01;33.61;96561.28;4211857;28;5778;-70
2022/07/25 18:39:26;;;;;;;;;;;;;;;31.98;33.55;96563.91;4213213;28;5116;-70
2022/07/25 18:41:29;;;;;;;;;;;;;;;31.91;33.33;96555.44;4211722;28;5671;-71
2022/07/25 18:43:32;;;;;;;;;;;;;;;31.84;33.86;96556.81;4217315;28;5833;-71
2022/07/25 18:45:36;;;;;;;;;;;;;;;31.81;33.50;96552.00;4216515;28;6032;-71
2022/07/25 18:47:39;;;;;;;;;;;;;;;31.71;33.41;96551.56;4212679;28;5819;-67
2022/07/25 18:49:42;;;;;;;;;;;;;;;31.66;33.69;96555.31;4216271;28;5754;-67
2022/07/25 18:51:45;;;;;;;;;;;;;;;31.67;33.82;96558.84;4216594;28;5675;-66
2022/07/25 18:53:49;;;;;;;;;;;;;;;31.64;33.68;96579.44;4216811;28;5829;-66
2022/07/25 18:55:52;;;;;;;;;;;;;;;31.65;34.15;96567.38;4214820;28;5805;-67
2022/07/25 18:57:55;;;;;;;;;;;;;;;31.61;33.86;96580.13;4216492;28;7187;-67
2022/07/25 18:59:58;;;;;;;;;;;;;;;31.57;33.78;96587.38;4215090;28;5871;-66
2022/07/25 19:02:05;;;;;;;;;;;;;;;31.55;34.14;96584.19;4214482;28;5675;-66
2022/07/25 19:04:08;;;;;;;;;;;;;;;31.49;34.08;96580.06;4214409;28;5834;-66
2022/07/25 19:06:11;;;;;;;;;;;;;;;31.48;34.27;96592.09;4212098;28;5837;-66
2022/07/25 19:08:15;;;;;;;;;;;;;;;31.46;34.46;96594.38;4212753;28;5660;-67
2022/07/25 19:10:19;;;;;;;;;;;;;;;31.38;34.21;96600.72;4211043;28;5697;-67
2022/07/25 19:12:25;;;;;;;;;;;;;;;31.32;34.43;96600.09;4201281;28;5811;-67
2022/07/25 19:14:29;;;;;;;;;;;;;;;31.34;34.46;96602.50;4212613;28;5787;-66
2022/07/25 19:16:32;;;;;;;;;;;;;;;31.35;34.37;96609.56;4210512;28;5681;-67
2022/07/25 19:18:35;;;;;;;;;;;;;;;31.35;34.57;96621.28;4212013;28;5829;-67
2022/07/25 19:20:38;;;;;;;;;;;;;;;31.36;34.10;96633.78;4213191;28;5755;-67
2022/07/25 19:22:41;;;;;;;;;;;;;;;31.37;34.54;96640.06;4216968;28;5656;-67